Terminal Aerodrome Forecast
Issued by NWS Shreveport, LA

Home | Current Version | Previous Version | Text Only | Print | Product List | Glossary On
Versions: 1 2 3 4 5 6 7 8 9 10 11 12 13 14 15 16 17 18 19 20 21 22 23 24
000
FTUS44 KSHV 151720
TAFSHV
TAF
KSHV 151720Z 1518/1618 07008KT P6SM SCT060
     FM160100 VRB03KT P6SM SKC
     FM161500 08004KT P6SM SKC
     FM161700 09007KT P6SM SCT050=

USA.gov is the U.S. government's official web portal to all federal, state and local government web resources and services.